createdAt,value
2023-04-17T00:00:01.500Z,12.59
2023-04-17T00:02:29.972Z,12.59
2023-04-17T00:04:57.946Z,12.57
2023-04-17T00:07:28.301Z,12.46
2023-04-17T00:09:56.105Z,12.50
2023-04-17T00:12:23.809Z,12.48
2023-04-17T00:14:52.915Z,12.50
2023-04-17T00:17:20.650Z,12.48
2023-04-17T00:19:48.646Z,12.52
2023-04-17T00:22:16.346Z,12.48
2023-04-17T00:24:44.134Z,12.49
2023-04-17T00:27:11.886Z,12.45
2023-04-17T00:29:39.680Z,12.47
2023-04-17T00:32:09.016Z,12.51
2023-04-17T00:34:37.998Z,12.50
2023-04-17T00:37:05.784Z,12.48
2023-04-17T00:39:33.545Z,12.49
2023-04-17T00:42:01.633Z,12.50
2023-04-17T00:44:29.476Z,12.47
2023-04-17T00:46:57.728Z,12.47
2023-04-17T00:49:27.569Z,12.47
2023-04-17T00:51:55.950Z,12.48
2023-04-17T00:54:25.674Z,12.49
2023-04-17T00:56:57.720Z,12.46
2023-04-17T00:59:29.420Z,12.44
2023-04-17T01:01:57.228Z,12.46
2023-04-17T01:04:26.722Z,12.43
2023-04-17T01:06:54.723Z,12.45
2023-04-17T01:09:22.583Z,12.42
2023-04-17T01:11:50.304Z,12.42
2023-04-17T01:14:18.081Z,12.40
2023-04-17T01:16:46.068Z,12.40
2023-04-17T01:19:16.118Z,12.46
2023-04-17T01:21:45.482Z,12.44
2023-04-17T01:24:15.423Z,12.42
2023-04-17T01:26:43.650Z,12.43
2023-04-17T01:29:11.653Z,12.43
2023-04-17T01:31:39.786Z,12.44
2023-04-17T01:34:07.559Z,12.41
2023-04-17T01:36:35.338Z,12.39
2023-04-17T01:39:03.952Z,12.40
2023-04-17T01:41:33.138Z,12.42
2023-04-17T01:44:01.109Z,12.43
2023-04-17T01:46:30.392Z,12.42
2023-04-17T01:48:58.152Z,12.43
2023-04-17T01:51:25.833Z,12.42
2023-04-17T01:53:54.056Z,12.40
2023-04-17T01:56:21.853Z,12.40
2023-04-17T01:58:51.737Z,12.42
2023-04-17T02:01:20.841Z,12.39
2023-04-17T02:03:48.839Z,12.38
2023-04-17T02:06:16.959Z,12.40
2023-04-17T02:08:45.580Z,12.39
2023-04-17T02:11:15.240Z,12.38
2023-04-17T02:13:42.954Z,12.31
2023-04-17T02:16:12.697Z,12.37
2023-04-17T02:18:42.965Z,12.35
2023-04-17T02:21:10.768Z,12.33
2023-04-17T02:23:38.505Z,12.34
2023-04-17T02:26:06.451Z,12.36
2023-04-17T02:28:34.177Z,12.36
2023-04-17T02:31:03.387Z,12.38
2023-04-17T02:33:32.539Z,12.36
2023-04-17T02:36:00.900Z,12.38
2023-04-17T02:38:37.774Z,12.38
2023-04-17T02:41:06.206Z,12.32
2023-04-17T02:43:34.929Z,12.35
2023-04-17T02:46:02.672Z,12.32
2023-04-17T02:48:32.361Z,12.34
2023-04-17T02:51:00.100Z,12.32
2023-04-17T02:53:28.466Z,12.31
2023-04-17T02:55:58.116Z,12.29
2023-04-17T02:58:26.316Z,12.27
2023-04-17T03:01:01.390Z,12.32
2023-04-17T03:03:34.752Z,12.34
2023-04-17T03:06:10.428Z,12.33
2023-04-17T03:08:38.511Z,12.35
2023-04-17T03:11:07.072Z,12.33
2023-04-17T03:13:36.667Z,12.32
2023-04-17T03:16:05.587Z,12.31
2023-04-17T03:18:40.754Z,12.33
2023-04-17T03:21:09.197Z,12.32
2023-04-17T03:23:37.039Z,12.33
2023-04-17T03:26:06.585Z,12.34
2023-04-17T03:28:34.974Z,12.34
2023-04-17T03:31:03.873Z,12.36
2023-04-17T03:33:33.866Z,12.34
2023-04-17T03:36:03.694Z,12.33
2023-04-17T03:38:31.860Z,12.33
2023-04-17T03:40:59.908Z,12.34
2023-04-17T03:43:28.214Z,12.32
2023-04-17T03:45:56.051Z,12.31
2023-04-17T03:48:24.269Z,12.31
2023-04-17T03:50:52.671Z,12.29
2023-04-17T03:53:21.884Z,12.28
2023-04-17T03:55:50.824Z,12.28
2023-04-17T03:58:26.876Z,12.26
2023-04-17T04:00:55.642Z,12.30
2023-04-17T04:03:26.867Z,12.28
2023-04-17T04:05:56.142Z,12.30
2023-04-17T04:08:25.418Z,12.31
2023-04-17T04:10:55.427Z,12.24
2023-04-17T04:13:33.848Z,12.27
2023-04-17T04:16:03.220Z,12.27
2023-04-17T04:18:33.686Z,12.25
2023-04-17T04:21:02.067Z,12.23
2023-04-17T04:23:39.701Z,12.21
2023-04-17T04:26:07.809Z,12.18
2023-04-17T04:28:39.157Z,12.22
2023-04-17T04:31:10.848Z,12.18
2023-04-17T04:33:41.453Z,12.18
2023-04-17T04:36:09.433Z,12.18
2023-04-17T04:38:38.874Z,12.18
2023-04-17T04:41:17.502Z,12.18
2023-04-17T04:43:45.387Z,12.05
2023-04-17T04:46:13.699Z,12.16
2023-04-17T04:48:46.930Z,12.16
2023-04-17T04:51:14.865Z,12.16
2023-04-17T04:53:45.218Z,12.13
2023-04-17T04:56:15.467Z,12.14
2023-04-17T04:58:44.290Z,12.17
2023-04-17T05:01:12.180Z,12.17
2023-04-17T05:03:45.198Z,12.18
2023-04-17T05:06:17.470Z,12.15
2023-04-17T05:08:51.287Z,12.15
2023-04-17T05:11:19.123Z,12.17
2023-04-17T05:13:46.900Z,12.17
2023-04-17T05:16:20.072Z,12.15
2023-04-17T05:18:48.271Z,12.17
2023-04-17T05:21:20.291Z,12.20
2023-04-17T05:23:52.294Z,12.17
2023-04-17T05:26:21.941Z,12.19
2023-04-17T05:28:50.378Z,12.16
2023-04-17T05:31:23.584Z,12.16
2023-04-17T05:33:52.192Z,12.14
2023-04-17T05:36:22.287Z,12.15
2023-04-17T05:38:52.630Z,12.14
2023-04-17T05:41:20.677Z,12.13
2023-04-17T05:43:48.470Z,12.13
2023-04-17T05:46:16.194Z,12.15
2023-04-17T05:48:44.443Z,12.17
2023-04-17T05:51:12.347Z,12.18
2023-04-17T05:53:40.205Z,12.20
2023-04-17T05:56:09.333Z,12.16
2023-04-17T05:58:37.287Z,12.18
2023-04-17T06:01:06.705Z,12.19
2023-04-17T06:03:35.414Z,12.15
2023-04-17T06:06:11.344Z,12.20
2023-04-17T06:08:39.176Z,12.19
2023-04-17T06:11:07.613Z,12.21
2023-04-17T06:13:37.012Z,12.23
2023-04-17T06:16:05.591Z,12.25
2023-04-17T06:18:33.433Z,12.25
2023-04-17T06:21:01.777Z,12.27
2023-04-17T06:23:29.809Z,12.30
2023-04-17T06:25:57.666Z,12.29
2023-04-17T06:28:25.607Z,12.30
2023-04-17T06:30:56.806Z,12.35
2023-04-17T06:33:26.632Z,12.39
2023-04-17T06:35:55.277Z,12.42
2023-04-17T06:38:49.081Z,12.46
2023-04-17T06:41:18.954Z,12.47
2023-04-17T06:43:46.742Z,12.51
2023-04-17T06:46:16.947Z,12.49
2023-04-17T06:48:44.694Z,12.51
2023-04-17T06:51:12.399Z,12.48
2023-04-17T06:53:40.109Z,12.53
2023-04-17T06:56:08.045Z,12.56
2023-04-17T06:58:42.212Z,12.54
2023-04-17T07:01:09.958Z,12.57
2023-04-17T07:03:39.932Z,12.58
2023-04-17T07:06:08.545Z,12.55
2023-04-17T07:08:36.576Z,12.54
2023-04-17T07:11:04.323Z,12.59
2023-04-17T07:13:33.254Z,12.65
2023-04-17T07:16:01.630Z,12.63
2023-04-17T07:18:30.401Z,12.62
2023-04-17T07:20:59.607Z,12.68
2023-04-17T07:23:27.395Z,12.71
2023-04-17T07:25:55.163Z,12.73
2023-04-17T07:28:23.171Z,12.77
2023-04-17T07:30:51.158Z,12.79
2023-04-17T07:33:18.932Z,12.84
2023-04-17T07:35:46.631Z,12.82
2023-04-17T07:38:16.066Z,12.86
2023-04-17T07:40:44.418Z,12.88
2023-04-17T07:43:12.134Z,12.83
2023-04-17T07:45:41.840Z,12.84
2023-04-17T07:48:10.587Z,12.87
2023-04-17T07:50:38.390Z,12.92
2023-04-17T07:53:06.185Z,12.97
2023-04-17T07:55:35.617Z,12.98
2023-04-17T07:58:03.898Z,12.90
2023-04-17T08:00:32.484Z,12.99
2023-04-17T08:03:02.251Z,13.06
2023-04-17T08:05:30.527Z,13.11
2023-04-17T08:08:00.194Z,13.15
2023-04-17T08:10:28.082Z,13.15
2023-04-17T08:12:57.159Z,13.20
2023-04-17T08:15:24.905Z,13.19
2023-04-17T08:17:52.779Z,13.22
2023-04-17T08:20:20.799Z,13.29
2023-04-17T08:22:48.596Z,13.36
2023-04-17T08:25:16.461Z,13.43
2023-04-17T08:27:45.112Z,13.51
2023-04-17T08:30:18.469Z,13.53
2023-04-17T08:32:50.193Z,13.57
2023-04-17T08:35:18.174Z,13.52
2023-04-17T08:37:46.823Z,13.58
2023-04-17T08:40:17.049Z,13.61
2023-04-17T08:42:47.525Z,13.68
2023-04-17T08:45:17.491Z,13.79
2023-04-17T08:47:45.293Z,13.81
2023-04-17T08:50:15.709Z,13.77
2023-04-17T08:52:44.305Z,13.74
2023-04-17T08:55:13.954Z,13.85
2023-04-17T08:57:58.677Z,13.89
2023-04-17T09:00:29.822Z,13.91
2023-04-17T09:02:59.291Z,13.91
2023-04-17T09:05:30.290Z,13.86
2023-04-17T09:08:09.236Z,13.77
2023-04-17T09:10:38.026Z,13.78
2023-04-17T09:13:06.272Z,13.78
2023-04-17T09:15:36.600Z,13.75
2023-04-17T09:18:05.215Z,13.81
2023-04-17T09:20:33.580Z,13.86
2023-04-17T09:23:03.786Z,13.86
2023-04-17T09:25:31.511Z,13.97
2023-04-17T09:28:12.695Z,14.03
2023-04-17T09:30:42.986Z,14.06
2023-04-17T09:33:11.794Z,14.02
2023-04-17T09:35:40.529Z,13.96
2023-04-17T09:38:08.576Z,14.01
2023-04-17T09:40:40.675Z,14.04
2023-04-17T09:43:10.526Z,14.21
2023-04-17T09:45:43.798Z,14.18
2023-04-17T09:48:13.223Z,14.26
2023-04-17T09:50:41.409Z,14.23
2023-04-17T09:53:09.734Z,14.19
2023-04-17T09:55:38.009Z,14.22
2023-04-17T09:58:08.161Z,14.25
2023-04-17T10:00:37.872Z,14.32
2023-04-17T10:03:08.413Z,14.42
2023-04-17T10:05:36.797Z,14.54
2023-04-17T10:08:05.629Z,14.57
2023-04-17T10:10:36.205Z,14.64
2023-04-17T10:13:06.641Z,14.69
2023-04-17T10:15:35.259Z,14.79
2023-04-17T10:18:24.296Z,14.86
2023-04-17T10:20:55.189Z,15.02
2023-04-17T10:23:31.511Z,15.32
2023-04-17T10:26:42.075Z,15.92
2023-04-17T10:29:10.464Z,16.20
2023-04-17T10:32:26.205Z,16.28
2023-04-17T10:34:57.173Z,16.38
2023-04-17T10:37:54.658Z,16.51
2023-04-17T10:40:24.780Z,16.75
2023-04-17T10:43:03.923Z,17.05
2023-04-17T10:45:53.815Z,17.50
2023-04-17T10:48:23.149Z,17.76
2023-04-17T10:50:52.288Z,17.54
2023-04-17T10:53:42.716Z,17.62
2023-04-17T10:56:11.320Z,17.87
2023-04-17T10:58:56.876Z,18.15
2023-04-17T11:01:28.350Z,18.44
2023-04-17T11:03:57.035Z,18.67
2023-04-17T11:06:28.826Z,18.68
2023-04-17T11:08:57.811Z,18.76
2023-04-17T11:11:35.262Z,18.92
2023-04-17T11:14:14.838Z,19.05
2023-04-17T11:16:44.307Z,18.97
2023-04-17T11:19:14.169Z,19.14
2023-04-17T11:21:44.984Z,19.38
2023-04-17T11:24:13.018Z,19.41
2023-04-17T11:26:44.423Z,19.66
2023-04-17T11:29:16.703Z,19.63
2023-04-17T11:31:45.605Z,19.71
2023-04-17T11:34:14.138Z,19.79
2023-04-17T11:36:41.920Z,19.85
2023-04-17T11:39:11.293Z,20.09
2023-04-17T11:41:39.638Z,20.48
2023-04-17T11:44:09.994Z,20.72
2023-04-17T11:46:37.789Z,20.93
2023-04-17T11:49:06.118Z,21.18
2023-04-17T11:51:34.141Z,21.32
2023-04-17T11:54:01.943Z,21.53
2023-04-17T11:56:31.119Z,21.08
2023-04-17T11:59:00.188Z,20.33
2023-04-17T12:01:29.359Z,20.55
2023-04-17T12:03:58.761Z,21.17
2023-04-17T12:06:37.083Z,21.10
2023-04-17T12:09:06.947Z,20.68
2023-04-17T12:11:36.787Z,19.89
2023-04-17T12:14:05.156Z,19.55
2023-04-17T12:16:33.123Z,18.94
2023-04-17T12:19:01.059Z,19.40
2023-04-17T12:21:28.755Z,19.23
2023-04-17T12:23:56.478Z,19.89
2023-04-17T12:26:25.183Z,20.13
2023-04-17T12:28:54.278Z,20.22
2023-04-17T12:31:22.125Z,20.41
2023-04-17T12:33:50.001Z,21.54
2023-04-17T12:36:17.748Z,22.09
2023-04-17T12:38:46.440Z,22.31
2023-04-17T12:41:14.219Z,22.40
2023-04-17T12:43:41.993Z,22.92
2023-04-17T12:46:11.169Z,22.04
2023-04-17T12:48:38.915Z,20.83
2023-04-17T12:51:06.946Z,21.11
2023-04-17T12:53:34.686Z,21.56
2023-04-17T12:56:02.452Z,22.40
2023-04-17T12:58:30.292Z,23.04
2023-04-17T13:00:58.085Z,22.74
2023-04-17T13:03:27.334Z,21.38
2023-04-17T13:05:55.264Z,21.97
2023-04-17T13:08:22.986Z,20.91
2023-04-17T13:10:50.769Z,21.17
2023-04-17T13:13:18.512Z,20.66
2023-04-17T13:15:47.400Z,20.02
2023-04-17T13:18:15.689Z,19.98
2023-04-17T13:20:44.756Z,21.15
2023-04-17T13:23:14.340Z,21.76
2023-04-17T13:25:42.199Z,21.37
2023-04-17T13:28:13.022Z,21.79
2023-04-17T13:30:40.778Z,22.06
2023-04-17T13:33:08.696Z,21.81
2023-04-17T13:35:36.743Z,22.11
2023-04-17T13:38:05.896Z,22.36
2023-04-17T13:40:33.614Z,21.69
2023-04-17T13:43:01.369Z,22.27
2023-04-17T13:45:29.030Z,22.75
2023-04-17T13:47:56.843Z,22.37
2023-04-17T13:50:24.658Z,21.46
2023-04-17T13:52:52.352Z,21.96
2023-04-17T13:55:21.527Z,21.44
2023-04-17T13:57:49.297Z,20.66
2023-04-17T14:00:18.309Z,20.08
2023-04-17T14:02:46.338Z,19.67
2023-04-17T14:05:14.406Z,19.40
2023-04-17T14:07:42.230Z,19.22
2023-04-17T14:10:10.975Z,19.18
2023-04-17T14:12:40.097Z,19.11
2023-04-17T14:15:09.059Z,18.88
2023-04-17T14:17:38.109Z,18.69
2023-04-17T14:20:07.420Z,18.53
2023-04-17T14:22:35.183Z,18.36
2023-04-17T14:25:02.975Z,18.27
2023-04-17T14:27:30.802Z,18.21
2023-04-17T14:30:01.378Z,18.16
2023-04-17T14:32:29.509Z,18.02
2023-04-17T14:34:57.292Z,17.90
2023-04-17T14:37:25.207Z,17.81
2023-04-17T14:39:53.047Z,17.76
2023-04-17T14:42:20.905Z,17.72
2023-04-17T14:44:48.654Z,17.72
2023-04-17T14:47:17.860Z,17.76
2023-04-17T14:49:45.760Z,17.88
2023-04-17T14:52:13.495Z,17.97
2023-04-17T14:54:41.286Z,17.90
2023-04-17T14:57:09.280Z,17.81
2023-04-17T14:59:37.089Z,17.72
2023-04-17T15:02:07.145Z,17.68
2023-04-17T15:04:36.416Z,17.52
2023-04-17T15:07:04.824Z,17.67
2023-04-17T15:09:32.724Z,17.71
2023-04-17T15:12:03.099Z,17.76
2023-04-17T15:14:30.997Z,17.85
2023-04-17T15:17:01.551Z,18.00
2023-04-17T15:19:29.509Z,18.06
2023-04-17T15:21:58.616Z,17.95
2023-04-17T15:24:26.391Z,17.76
2023-04-17T15:26:54.074Z,17.62
2023-04-17T15:29:21.850Z,17.47
2023-04-17T15:31:52.889Z,17.35
2023-04-17T15:34:20.947Z,17.30
2023-04-17T15:36:48.778Z,17.33
2023-04-17T15:39:18.113Z,17.48
2023-04-17T15:41:46.019Z,17.75
2023-04-17T15:44:13.695Z,17.89
2023-04-17T15:46:41.556Z,17.80
2023-04-17T15:49:09.627Z,17.66
2023-04-17T15:51:39.514Z,17.46
2023-04-17T15:54:11.716Z,17.39
2023-04-17T15:56:41.418Z,17.31
2023-04-17T15:59:09.173Z,17.25
2023-04-17T16:01:36.963Z,17.18
2023-04-17T16:04:05.337Z,17.09
2023-04-17T16:06:33.673Z,17.08
2023-04-17T16:09:01.891Z,17.01
2023-04-17T16:11:29.533Z,16.91
2023-04-17T16:13:58.713Z,16.86
2023-04-17T16:16:29.369Z,16.84
2023-04-17T16:18:57.550Z,16.82
2023-04-17T16:21:26.770Z,16.86
2023-04-17T16:23:54.547Z,16.95
2023-04-17T16:26:22.339Z,16.86
2023-04-17T16:28:50.069Z,16.77
2023-04-17T16:31:21.169Z,16.67
2023-04-17T16:33:48.976Z,16.58
2023-04-17T16:36:16.715Z,16.49
2023-04-17T16:38:45.629Z,16.45
2023-04-17T16:41:13.394Z,16.49
2023-04-17T16:43:42.484Z,16.65
2023-04-17T16:46:20.550Z,16.82
2023-04-17T16:48:54.059Z,16.99
2023-04-17T16:51:23.684Z,17.13
2023-04-17T16:53:51.664Z,17.26
2023-04-17T16:56:19.487Z,17.29
2023-04-17T16:58:47.291Z,17.32
2023-04-17T17:01:18.236Z,17.35
2023-04-17T17:03:46.553Z,17.37
2023-04-17T17:06:18.781Z,17.33
2023-04-17T17:08:46.869Z,17.30
2023-04-17T17:11:14.930Z,17.27
2023-04-17T17:13:42.679Z,17.22
2023-04-17T17:16:10.416Z,17.16
2023-04-17T17:18:38.185Z,17.05
2023-04-17T17:21:07.064Z,16.98
2023-04-17T17:23:36.755Z,16.88
2023-04-17T17:26:04.586Z,16.78
2023-04-17T17:28:32.428Z,16.70
2023-04-17T17:31:01.580Z,16.63
2023-04-17T17:33:29.572Z,16.57
2023-04-17T17:35:57.478Z,16.53
2023-04-17T17:38:28.410Z,16.44
2023-04-17T17:40:57.659Z,16.41
2023-04-17T17:43:25.718Z,16.36
2023-04-17T17:45:53.568Z,16.29
2023-04-17T17:48:21.506Z,16.28
2023-04-17T17:50:54.190Z,16.22
2023-04-17T17:53:27.223Z,16.19
2023-04-17T17:55:57.893Z,16.13
2023-04-17T17:58:25.933Z,16.11
2023-04-17T18:00:53.838Z,16.08
2023-04-17T18:03:22.325Z,16.04
2023-04-17T18:05:51.413Z,15.96
2023-04-17T18:08:19.231Z,15.86
2023-04-17T18:10:46.946Z,15.83
2023-04-17T18:13:16.227Z,15.77
2023-04-17T18:15:44.060Z,15.70
2023-04-17T18:18:11.848Z,15.68
2023-04-17T18:20:40.450Z,15.60
2023-04-17T18:23:08.229Z,15.48
2023-04-17T18:25:36.573Z,15.32
2023-04-17T18:28:04.808Z,15.30
2023-04-17T18:30:34.252Z,15.20
2023-04-17T18:33:02.040Z,15.16
2023-04-17T18:35:34.072Z,15.10
2023-04-17T18:38:02.072Z,15.01
2023-04-17T18:40:30.636Z,14.96
2023-04-17T18:42:58.616Z,14.89
2023-04-17T18:45:26.615Z,14.82
2023-04-17T18:47:55.844Z,14.72
2023-04-17T18:50:23.734Z,14.54
2023-04-17T18:52:51.532Z,14.48
2023-04-17T18:55:19.385Z,14.46
2023-04-17T18:57:47.117Z,14.28
2023-04-17T19:00:15.318Z,14.17
2023-04-17T19:02:43.348Z,14.08
2023-04-17T19:05:12.597Z,14.02
2023-04-17T19:07:40.522Z,13.97
2023-04-17T19:10:09.267Z,13.96
2023-04-17T19:12:37.122Z,13.85
2023-04-17T19:15:05.635Z,13.82
2023-04-17T19:17:33.490Z,13.78
2023-04-17T19:20:01.355Z,13.78
2023-04-17T19:22:30.607Z,13.62
2023-04-17T19:24:58.481Z,13.60
2023-04-17T19:27:27.151Z,13.51
2023-04-17T19:29:55.178Z,13.47
2023-04-17T19:32:22.968Z,13.40
2023-04-17T19:34:50.804Z,13.34
2023-04-17T19:37:18.583Z,13.30
2023-04-17T19:39:47.737Z,13.21
2023-04-17T19:42:15.429Z,13.19
2023-04-17T19:44:43.117Z,13.14
2023-04-17T19:47:11.391Z,13.15
2023-04-17T19:49:39.393Z,13.11
2023-04-17T19:52:07.124Z,13.06
2023-04-17T19:54:34.803Z,13.01
2023-04-17T19:57:03.967Z,13.08
2023-04-17T19:59:31.660Z,13.09
2023-04-17T20:01:59.426Z,13.04
2023-04-17T20:04:27.265Z,13.04
2023-04-17T20:06:55.186Z,13.03
2023-04-17T20:09:22.909Z,12.99
2023-04-17T20:11:50.673Z,12.95
2023-04-17T20:14:20.701Z,12.91
2023-04-17T20:16:50.012Z,12.85
2023-04-17T20:19:17.963Z,12.77
2023-04-17T20:21:46.807Z,12.78
2023-04-17T20:24:15.859Z,12.78
2023-04-17T20:26:44.830Z,12.80
2023-04-17T20:29:12.921Z,12.79
2023-04-17T20:31:42.249Z,12.78
2023-04-17T20:34:10.184Z,12.75
2023-04-17T20:36:37.914Z,12.71
2023-04-17T20:39:07.114Z,12.66
2023-04-17T20:41:34.966Z,12.58
2023-04-17T20:44:03.090Z,12.63
2023-04-17T20:46:31.665Z,12.61
2023-04-17T20:49:00.873Z,12.62
2023-04-17T20:51:28.725Z,12.59
2023-04-17T20:53:56.508Z,12.46
2023-04-17T20:56:24.602Z,12.39
2023-04-17T20:58:52.426Z,12.36
2023-04-17T21:01:20.988Z,12.33
2023-04-17T21:03:48.867Z,12.28
2023-04-17T21:06:21.035Z,12.31
2023-04-17T21:08:48.793Z,12.30
2023-04-17T21:11:16.554Z,12.32
2023-04-17T21:13:44.285Z,12.31
2023-04-17T21:16:12.476Z,12.31
2023-04-17T21:18:40.400Z,12.27
2023-04-17T21:21:08.113Z,12.21
2023-04-17T21:23:37.188Z,12.18
2023-04-17T21:26:05.149Z,12.17
2023-04-17T21:28:32.966Z,12.14
2023-04-17T21:31:00.730Z,12.22
2023-04-17T21:33:28.620Z,12.20
2023-04-17T21:35:56.451Z,12.17
2023-04-17T21:38:24.159Z,12.10
2023-04-17T21:40:53.227Z,12.06
2023-04-17T21:43:20.967Z,12.07
2023-04-17T21:45:49.885Z,12.05
2023-04-17T21:48:18.020Z,11.96
2023-04-17T21:50:45.833Z,11.96
2023-04-17T21:53:13.556Z,11.92
2023-04-17T21:55:41.555Z,11.89
2023-04-17T21:58:10.664Z,11.83
2023-04-17T22:00:38.426Z,11.82
2023-04-17T22:03:06.268Z,11.74
2023-04-17T22:05:34.032Z,11.76
2023-04-17T22:08:02.228Z,11.75
2023-04-17T22:10:30.647Z,11.75
2023-04-17T22:12:58.335Z,11.62
2023-04-17T22:15:27.620Z,11.54
2023-04-17T22:17:55.368Z,11.50
2023-04-17T22:20:23.069Z,11.47
2023-04-17T22:22:50.723Z,11.42
2023-04-17T22:25:18.717Z,11.38
2023-04-17T22:27:46.526Z,11.32
2023-04-17T22:30:14.457Z,11.31
2023-04-17T22:32:43.711Z,11.33
2023-04-17T22:35:11.582Z,11.28
2023-04-17T22:37:39.282Z,11.27
2023-04-17T22:40:08.487Z,11.27
2023-04-17T22:42:36.257Z,11.24
2023-04-17T22:45:04.316Z,11.21
2023-04-17T22:47:32.122Z,11.20
2023-04-17T22:50:02.370Z,11.19
2023-04-17T22:52:30.300Z,11.22
2023-04-17T22:54:58.278Z,11.22
2023-04-17T22:57:26.043Z,11.22
2023-04-17T22:59:53.898Z,11.23
2023-04-17T23:02:21.731Z,11.23
2023-04-17T23:04:49.569Z,11.23
2023-04-17T23:07:18.729Z,11.20
2023-04-17T23:09:47.033Z,11.21
2023-04-17T23:12:14.751Z,11.17
2023-04-17T23:14:43.414Z,11.14
2023-04-17T23:17:11.120Z,11.06
2023-04-17T23:19:38.951Z,11.08
2023-04-17T23:22:07.422Z,11.02
2023-04-17T23:24:36.671Z,11.00
2023-04-17T23:27:04.567Z,10.95
2023-04-17T23:29:32.268Z,10.79
2023-04-17T23:32:00.449Z,10.91
2023-04-17T23:34:28.393Z,10.86
2023-04-17T23:36:56.128Z,10.83
2023-04-17T23:39:24.192Z,10.85
2023-04-17T23:41:53.414Z,10.83
2023-04-17T23:44:21.261Z,10.82
2023-04-17T23:46:49.079Z,10.81
2023-04-17T23:49:16.830Z,10.81
2023-04-17T23:51:44.800Z,10.80
2023-04-17T23:54:12.922Z,10.84
2023-04-17T23:56:43.365Z,10.86
2023-04-17T23:59:12.606Z,10.86
